Volgoneft-214 — UBQB9 — position and weather

sailwx.info

Track history (hours):
 
Tides and Currents Weather Stations Pressure Air Temp Water Temp Dewpoint Dewpoint Depression Visibility Wind Speed Wind Dir Waves Ship Positions

Volgoneft-214

Last reported at 2018-Jun-11 11:11 UTC. Time now 2018-Jun-23 02:56 UTC.
Position N 45°31' E 036°47'.
Warning: this ship's position is 11 days out of date.

Length 132 m; draft 3.5 m.

Type: Tanker. MMSI: 273432980.

Date/timePositionNaut miles runAvg speedWind from/ knotsBaromVisibWave heightAir tempDewpointWater temp
2018-Jun-11 11:11N 45°31' E 036°47'2 6.7
2018-Jun-11 10:57N 45°30' E 036°45'3 6.7
2018-Jun-11 10:30N 45°28' E 036°43'3 6.5
2018-Jun-11 10:00N 45°25' E 036°41'2 3.9
2018-Jun-11 09:29N 45°22' E 036°41'0 0.1
2018-Jun-11 09:00N 45°22' E 036°41'0 0.0
2018-Jun-11 08:30N 45°22' E 036°41'0 0.0
2018-Jun-11 07:59N 45°22' E 036°41'0 0.0
2018-Jun-11 07:29N 45°22' E 036°41'0 0.0
2018-Jun-11 06:56N 45°22' E 036°41'0 0.0
2018-Jun-11 06:26N 45°22' E 036°41'0 0.0
2018-Jun-11 05:58N 45°22' E 036°41'0 0.0
2018-Jun-11 05:28N 45°22' E 036°41'0 0.0
2018-Jun-11 04:58N 45°22' E 036°41'0 0.0
2018-Jun-11 04:28N 45°22' E 036°41'0 0.0
2018-Jun-11 04:00N 45°22' E 036°41'0 0.0
2018-Jun-11 03:28N 45°22' E 036°41'0 0.0
2018-Jun-11 02:59N 45°22' E 036°41'0 0.0
2018-Jun-11 02:28N 45°22' E 036°41'0 0.0
2018-Jun-11 02:00N 45°22' E 036°41'0 0.0
2018-Jun-11 01:29N 45°22' E 036°41'0 0.0
2018-Jun-11 00:59N 45°22' E 036°41'0 0.0
2018-Jun-11 00:29N 45°22' E 036°41'0 0.0
2018-Jun-10 23:55N 45°22' E 036°41'0 0.0
2018-Jun-10 23:24N 45°22' E 036°41'0 0.0
2018-Jun-10 23:00N 45°22' E 036°41'0 0.0
2018-Jun-10 22:30N 45°22' E 036°41'0 0.0
2018-Jun-10 21:56N 45°22' E 036°41'0 0.0
2018-Jun-10 21:30N 45°22' E 036°41'0 0.0
2018-Jun-10 20:58N 45°22' E 036°41'0 0.0
2018-Jun-10 20:28N 45°22' E 036°41'0 0.0
2018-Jun-10 19:57N 45°22' E 036°41'0 0.0
2018-Jun-10 19:28N 45°22' E 036°41'0 0.0
2018-Jun-10 18:57N 45°22' E 036°41'0 0.0
2018-Jun-10 18:30N 45°22' E 036°41'0 0.0
2018-Jun-10 17:56N 45°22' E 036°41'0 0.0
2018-Jun-10 17:20N 45°22' E 036°41'0 0.0
2018-Jun-10 16:59N 45°22' E 036°41'0 0.0
2018-Jun-10 16:29N 45°22' E 036°41'0 0.0
2018-Jun-10 15:58N 45°22' E 036°41'0 0.0
2018-Jun-10 15:30N 45°22' E 036°41'2 4.1
2018-Jun-10 15:00N 45°21' E 036°39'3 6.3
2018-Jun-10 14:30N 45°20' E 036°35'6 5.9
2018-Jun-10 13:30N 45°16' E 036°28'2 2.8
2018-Jun-10 12:59N 45°15' E 036°28'2 3.6
2018-Jun-10 12:30N 45°13' E 036°28'2 3.7
2018-Jun-10 11:52N 45°11' E 036°28'2 4.1
2018-Jun-10 11:29N 45°09' E 036°29'2 4.3
2018-Jun-10 11:00N 45°08' E 036°32'2 4.4
2018-Jun-10 10:30N 45°06' E 036°34'1 0.1
2018-Jun-09 22:28N 45°05' E 036°35'7 5.0
2018-Jun-09 21:08N 45°10' E 036°28'2 7.2
2018-Jun-09 20:55N 45°11' E 036°28'4 7.0
2018-Jun-09 20:23N 45°15' E 036°28'3 7.0
2018-Jun-09 19:56N 45°18' E 036°29'2 4.9
2018-Jun-09 19:30N 45°19' E 036°32'3 5.4
2018-Jun-09 19:00N 45°20' E 036°36'3 6.1
2018-Jun-09 18:30N 45°21' E 036°40'2 3.8
2018-Jun-09 18:00N 45°22' E 036°42'0 0.2
2018-Jun-09 17:23N 45°22' E 036°42'0 0.0
2018-Jun-09 16:58N 45°22' E 036°42'0 0.0
2018-Jun-09 16:30N 45°22' E 036°42'0 0.0
2018-Jun-09 15:58N 45°22' E 036°42'0 0.0
2018-Jun-09 15:28N 45°22' E 036°42'0 0.0
2018-Jun-09 14:30N 45°22' E 036°42'0 0.0
2018-Jun-09 13:57N 45°22' E 036°42'0 0.0
2018-Jun-09 13:29N 45°22' E 036°42'0 0.0
2018-Jun-09 13:00N 45°22' E 036°42'0 0.0
2018-Jun-09 12:30N 45°22' E 036°42'0 0.0
2018-Jun-09 11:57N 45°22' E 036°42'0 0.0
2018-Jun-09 11:30N 45°22' E 036°42'0 0.0
2018-Jun-09 10:53N 45°22' E 036°42'0 0.0
2018-Jun-09 10:29N 45°22' E 036°42'0 0.0
2018-Jun-09 09:54N 45°22' E 036°42'0 0.0
2018-Jun-09 09:29N 45°22' E 036°42'0 0.1
2018-Jun-09 08:58N 45°22' E 036°42'0 0.0
2018-Jun-09 08:30N 45°22' E 036°42'0 0.0
2018-Jun-09 07:57N 45°22' E 036°42'0 0.0
2018-Jun-09 07:28N 45°22' E 036°42'0 0.0
2018-Jun-09 06:59N 45°22' E 036°42'0 0.1
2018-Jun-09 06:28N 45°22' E 036°42'0 0.0
2018-Jun-09 05:59N 45°22' E 036°42'0 0.0
2018-Jun-09 05:28N 45°22' E 036°42'0 0.1
2018-Jun-09 04:58N 45°22' E 036°42'0 0.1
2018-Jun-09 04:29N 45°22' E 036°42'0 0.1
2018-Jun-09 03:58N 45°22' E 036°42'0 0.1
2018-Jun-09 03:30N 45°22' E 036°42'0 0.1
2018-Jun-09 02:53N 45°22' E 036°42'0 0.2
2018-Jun-09 02:30N 45°22' E 036°42'0 0.1
2018-Jun-09 01:57N 45°22' E 036°42'0 0.0
2018-Jun-08 23:54N 45°22' E 036°42'0 0.0
2018-Jun-08 23:30N 45°22' E 036°42'0 0.0
2018-Jun-08 22:59N 45°22' E 036°42'0 0.0
2018-Jun-08 22:26N 45°22' E 036°42'0 0.0
2018-Jun-08 21:56N 45°22' E 036°42'0 0.0
2018-Jun-08 21:27N 45°22' E 036°42'0 0.0
2018-Jun-08 20:54N 45°22' E 036°42'0 0.0
2018-Jun-08 18:17N 45°22' E 036°42'0 0.0
2018-Jun-08 17:59N 45°22' E 036°42'0 0.0
2018-Jun-08 17:23N 45°22' E 036°42'0 0.0
2018-Jun-08 16:58N 45°22' E 036°42'0 0.0
2018-Jun-08 16:30N 45°22' E 036°42'0 0.0
2018-Jun-08 16:00N 45°22' E 036°42'0 0.0
2018-Jun-08 15:28N 45°22' E 036°42'0 0.0
2018-Jun-08 14:53N 45°22' E 036°42'0 0.0
2018-Jun-08 14:29N 45°22' E 036°42'0 0.0
2018-Jun-08 13:56N 45°22' E 036°42'0 0.0
2018-Jun-08 13:28N 45°22' E 036°42'0 0.0
2018-Jun-08 13:00N 45°22' E 036°42'0 0.0
2018-Jun-08 12:30N 45°22' E 036°42'0 0.0
2018-Jun-08 11:56N 45°22' E 036°42'0 0.0
2018-Jun-08 11:28N 45°22' E 036°42'0 0.0
2018-Jun-08 10:58N 45°22' E 036°42'0 0.0
2018-Jun-08 10:26N 45°22' E 036°42'0 0.0
2018-Jun-08 09:56N 45°22' E 036°42'0 0.0
2018-Jun-08 09:30N 45°22' E 036°42'0 0.0
2018-Jun-08 08:59N 45°22' E 036°42'0 0.0
2018-Jun-08 08:28N 45°22' E 036°42'0 0.0
2018-Jun-08 07:57N 45°22' E 036°42'0 0.0
2018-Jun-08 07:28N 45°22' E 036°42'0 0.0
2018-Jun-08 06:59N 45°22' E 036°42'0 0.0
2018-Jun-08 06:29N 45°22' E 036°42'0 0.0
2018-Jun-08 05:55N 45°22' E 036°42'0 0.0
2018-Jun-08 05:28N 45°22' E 036°42'0 0.0
2018-Jun-08 04:58N 45°22' E 036°42'0 0.0
2018-Jun-08 04:29N 45°22' E 036°42'0 0.0
2018-Jun-08 03:57N 45°22' E 036°42'0 0.0
2018-Jun-08 03:29N 45°22' E 036°42'0 0.0
2018-Jun-08 02:59N 45°22' E 036°42'0 0.0
2018-Jun-08 02:28N 45°22' E 036°42'0 0.0
2018-Jun-08 01:56N 45°22' E 036°42'0 0.0
2018-Jun-08 01:30N 45°22' E 036°42'0 0.0
2018-Jun-08 00:58N 45°22' E 036°42'0 0.0
2018-Jun-08 00:30N 45°22' E 036°42'0 0.0
2018-Jun-07 23:56N 45°22' E 036°42'0 0.0
2018-Jun-07 23:26N 45°22' E 036°42'0 0.0
2018-Jun-07 22:59N 45°22' E 036°42'0 0.0
2018-Jun-07 22:29N 45°22' E 036°42'0 0.0
2018-Jun-07 21:55N 45°22' E 036°42'0 0.0
2018-Jun-07 21:29N 45°22' E 036°42'0 0.0
2018-Jun-07 20:59N 45°22' E 036°42'0 0.0
2018-Jun-07 20:28N 45°22' E 036°42'0 0.0
2018-Jun-07 19:55N 45°22' E 036°42'0 0.0
2018-Jun-07 19:28N 45°22' E 036°42'0 0.0
2018-Jun-07 19:00N 45°22' E 036°42'0 0.0
2018-Jun-07 18:30N 45°22' E 036°42'0 0.0
2018-Jun-07 17:55N 45°22' E 036°42'0 0.0
2018-Jun-07 17:25N 45°22' E 036°42'0 0.0
2018-Jun-07 16:53N 45°22' E 036°42'0 0.0
2018-Jun-07 16:30N 45°22' E 036°42'0 0.0
2018-Jun-07 15:58N 45°22' E 036°42'0 0.0
2018-Jun-07 15:15N 45°22' E 036°42'0 0.0
2018-Jun-07 14:58N 45°22' E 036°42'0 0.0
2018-Jun-07 14:28N 45°22' E 036°42'0 0.0
2018-Jun-07 14:00N 45°22' E 036°42'0 0.0
2018-Jun-07 13:30N 45°22' E 036°42'0 0.0
2018-Jun-07 12:59N 45°22' E 036°42'0 0.0
2018-Jun-07 12:30N 45°22' E 036°42'0 0.0
2018-Jun-07 11:59N 45°22' E 036°42'0 0.0
2018-Jun-07 11:30N 45°22' E 036°42'0 0.0
2018-Jun-07 10:53N 45°22' E 036°42'0 0.0
2018-Jun-07 10:29N 45°22' E 036°42'0 0.0
2018-Jun-07 09:55N 45°22' E 036°42'0 0.0
2018-Jun-07 09:27N 45°22' E 036°42'0 0.0
2018-Jun-07 08:59N 45°22' E 036°42'0 0.0
2018-Jun-07 08:29N 45°22' E 036°42'0 0.0
2018-Jun-07 08:00N 45°22' E 036°42'0 0.0
2018-Jun-07 07:29N 45°22' E 036°42'0 0.0
2018-Jun-07 06:59N 45°22' E 036°42'0 0.0
2018-Jun-07 06:30N 45°22' E 036°42'0 0.0
2018-Jun-07 05:58N 45°22' E 036°42'0 0.0
2018-Jun-07 05:28N 45°22' E 036°42'0 0.0
2018-Jun-07 04:59N 45°22' E 036°42'0 0.0
2018-Jun-07 00:31N 45°22' E 036°42'0 0.2
2018-Jun-07 00:22N 45°22' E 036°42'0 0.3
2018-Jun-06 23:56N 45°22' E 036°42'0 0.2
2018-Jun-06 23:28N 45°22' E 036°42'0 0.0
2018-Jun-06 22:59N 45°22' E 036°42'0 0.0
2018-Jun-06 22:28N 45°22' E 036°42'0 0.0
2018-Jun-06 21:58N 45°22' E 036°42'0 0.0
2018-Jun-06 21:22N 45°22' E 036°42'0 0.0
2018-Jun-06 21:00N 45°22' E 036°42'0 0.0
2018-Jun-06 20:25N 45°22' E 036°42'0 0.0
2018-Jun-06 19:59N 45°22' E 036°42'0 0.0
2018-Jun-06 19:27N 45°22' E 036°42'0 0.0
2018-Jun-06 18:57N 45°22' E 036°42'0 0.0
2018-Jun-06 14:53N 45°22' E 036°42'0 0.0
2018-Jun-06 14:18N 45°22' E 036°42'0 0.0
2018-Jun-06 13:57N 45°22' E 036°42'0 0.0
2018-Jun-06 13:28N 45°22' E 036°42'0 0.0
2018-Jun-06 13:00N 45°22' E 036°42'0 0.0
2018-Jun-06 12:30N 45°22' E 036°42'0 0.0
2018-Jun-06 11:54N 45°22' E 036°42'0 0.0
2018-Jun-06 11:29N 45°22' E 036°42'0 0.0
2018-Jun-06 10:58N 45°22' E 036°42'0 0.0
2018-Jun-06 10:29N 45°22' E 036°42'0 0.0
2018-Jun-06 09:55N 45°22' E 036°42'0 0.0
2018-Jun-06 09:20N 45°22' E 036°42'0 0.0
2018-Jun-06 08:53N 45°22' E 036°42'0 0.0
2018-Jun-06 08:28N 45°22' E 036°42'0 0.0
2018-Jun-06 07:55N 45°22' E 036°42'0 0.0
2018-Jun-06 07:28N 45°22' E 036°42'0 0.0
2018-Jun-06 07:00N 45°22' E 036°42'0 0.0
2018-Jun-06 06:30N 45°22' E 036°42'0 0.0
2018-Jun-06 06:00N 45°22' E 036°42'0 0.0
2018-Jun-06 05:25N 45°22' E 036°42'0 0.0
2018-Jun-06 04:59N 45°22' E 036°42'0 0.0
2018-Jun-06 04:29N 45°22' E 036°42'0 0.0
2018-Jun-06 04:00N 45°22' E 036°42'0 0.0
2018-Jun-06 03:29N 45°22' E 036°42'0 0.0
2018-Jun-06 02:59N 45°22' E 036°42'0 0.0
2018-Jun-06 02:29N 45°22' E 036°42'0 0.0
2018-Jun-06 02:00N 45°22' E 036°42'0 0.0
2018-Jun-06 01:30N 45°22' E 036°42'0 0.0
2018-Jun-06 01:00N 45°22' E 036°42'0 0.0
2018-Jun-06 00:31N 45°22' E 036°42'0 0.0
2018-Jun-06 00:01N 45°22' E 036°42'0 0.3
2018-Jun-05 23:30N 45°22' E 036°42'1 2.8
2018-Jun-05 23:01N 45°21' E 036°40'3 6.2
2018-Jun-05 22:31N 45°20' E 036°36'3 5.9
2018-Jun-05 22:01N 45°19' E 036°32'2 3.3
2018-Jun-05 21:31N 45°19' E 036°35'0 0.1
2018-Jun-05 21:00N 45°19' E 036°35'0 0.0
2018-Jun-05 20:31N 45°19' E 036°35'0 0.0
2018-Jun-05 20:00N 45°19' E 036°35'0 0.0
2018-Jun-05 19:30N 45°19' E 036°35'0 0.0
2018-Jun-05 19:01N 45°19' E 036°35'0 0.0
2018-Jun-05 18:31N 45°19' E 036°35'3 5.4
2018-Jun-05 18:01N 45°20' E 036°38'3 5.4
2018-Jun-05 17:30N 45°23' E 036°40'3 6.8
2018-Jun-05 17:01N 45°26' E 036°42'3 5.7
2018-Jun-05 16:30N 45°28' E 036°44'1 0.3
2018-Jun-05 14:12N 45°28' E 036°45'0 0.2
2018-Jun-05 14:00N 45°28' E 036°45'  
Track history (hours):
 
Tides and Currents Weather Stations Pressure Air Temp Water Temp Dewpoint Dewpoint Depression Visibility Wind Speed Wind Dir Waves Ship Positions

Volgoneft-214

Last reported at 2018-Jun-11 11:11 UTC. Time now 2018-Jun-23 02:56 UTC.
Position N 45°31' E 036°47'.
Warning: this ship's position is 11 days out of date.

Length 132 m; draft 3.5 m.

Type: Tanker. MMSI: 273432980.

Date/timePositionNaut miles runAvg speedWind from/ knotsBaromVisibWave heightAir tempDewpointWater temp
2018-Jun-11 11:11N 45°31' E 036°47'2 6.7
2018-Jun-11 10:57N 45°30' E 036°45'3 6.7
2018-Jun-11 10:30N 45°28' E 036°43'3 6.5
2018-Jun-11 10:00N 45°25' E 036°41'2 3.9
2018-Jun-11 09:29N 45°22' E 036°41'0 0.1
2018-Jun-11 09:00N 45°22' E 036°41'0 0.0
2018-Jun-11 08:30N 45°22' E 036°41'0 0.0
2018-Jun-11 07:59N 45°22' E 036°41'0 0.0
2018-Jun-11 07:29N 45°22' E 036°41'0 0.0
2018-Jun-11 06:56N 45°22' E 036°41'0 0.0
2018-Jun-11 06:26N 45°22' E 036°41'0 0.0
2018-Jun-11 05:58N 45°22' E 036°41'0 0.0
2018-Jun-11 05:28N 45°22' E 036°41'0 0.0
2018-Jun-11 04:58N 45°22' E 036°41'0 0.0
2018-Jun-11 04:28N 45°22' E 036°41'0 0.0
2018-Jun-11 04:00N 45°22' E 036°41'0 0.0
2018-Jun-11 03:28N 45°22' E 036°41'0 0.0
2018-Jun-11 02:59N 45°22' E 036°41'0 0.0
2018-Jun-11 02:28N 45°22' E 036°41'0 0.0
2018-Jun-11 02:00N 45°22' E 036°41'0 0.0
2018-Jun-11 01:29N 45°22' E 036°41'0 0.0
2018-Jun-11 00:59N 45°22' E 036°41'0 0.0
2018-Jun-11 00:29N 45°22' E 036°41'0 0.0
2018-Jun-10 23:55N 45°22' E 036°41'0 0.0
2018-Jun-10 23:24N 45°22' E 036°41'0 0.0
2018-Jun-10 23:00N 45°22' E 036°41'0 0.0
2018-Jun-10 22:30N 45°22' E 036°41'0 0.0
2018-Jun-10 21:56N 45°22' E 036°41'0 0.0
2018-Jun-10 21:30N 45°22' E 036°41'0 0.0
2018-Jun-10 20:58N 45°22' E 036°41'0 0.0
2018-Jun-10 20:28N 45°22' E 036°41'0 0.0
2018-Jun-10 19:57N 45°22' E 036°41'0 0.0
2018-Jun-10 19:28N 45°22' E 036°41'0 0.0
2018-Jun-10 18:57N 45°22' E 036°41'0 0.0
2018-Jun-10 18:30N 45°22' E 036°41'0 0.0
2018-Jun-10 17:56N 45°22' E 036°41'0 0.0
2018-Jun-10 17:20N 45°22' E 036°41'0 0.0
2018-Jun-10 16:59N 45°22' E 036°41'0 0.0
2018-Jun-10 16:29N 45°22' E 036°41'0 0.0
2018-Jun-10 15:58N 45°22' E 036°41'0 0.0
2018-Jun-10 15:30N 45°22' E 036°41'2 4.1
2018-Jun-10 15:00N 45°21' E 036°39'3 6.3
2018-Jun-10 14:30N 45°20' E 036°35'6 5.9
2018-Jun-10 13:30N 45°16' E 036°28'2 2.8
2018-Jun-10 12:59N 45°15' E 036°28'2 3.6
2018-Jun-10 12:30N 45°13' E 036°28'2 3.7
2018-Jun-10 11:52N 45°11' E 036°28'2 4.1
2018-Jun-10 11:29N 45°09' E 036°29'2 4.3
2018-Jun-10 11:00N 45°08' E 036°32'2 4.4
2018-Jun-10 10:30N 45°06' E 036°34'1 0.1
2018-Jun-09 22:28N 45°05' E 036°35'7 5.0
2018-Jun-09 21:08N 45°10' E 036°28'2 7.2
2018-Jun-09 20:55N 45°11' E 036°28'4 7.0
2018-Jun-09 20:23N 45°15' E 036°28'3 7.0
2018-Jun-09 19:56N 45°18' E 036°29'2 4.9
2018-Jun-09 19:30N 45°19' E 036°32'3 5.4
2018-Jun-09 19:00N 45°20' E 036°36'3 6.1
2018-Jun-09 18:30N 45°21' E 036°40'2 3.8
2018-Jun-09 18:00N 45°22' E 036°42'0 0.2
2018-Jun-09 17:23N 45°22' E 036°42'0 0.0
2018-Jun-09 16:58N 45°22' E 036°42'0 0.0
2018-Jun-09 16:30N 45°22' E 036°42'0 0.0
2018-Jun-09 15:58N 45°22' E 036°42'0 0.0
2018-Jun-09 15:28N 45°22' E 036°42'0 0.0
2018-Jun-09 14:30N 45°22' E 036°42'0 0.0
2018-Jun-09 13:57N 45°22' E 036°42'0 0.0
2018-Jun-09 13:29N 45°22' E 036°42'0 0.0
2018-Jun-09 13:00N 45°22' E 036°42'0 0.0
2018-Jun-09 12:30N 45°22' E 036°42'0 0.0
2018-Jun-09 11:57N 45°22' E 036°42'0 0.0
2018-Jun-09 11:30N 45°22' E 036°42'0 0.0
2018-Jun-09 10:53N 45°22' E 036°42'0 0.0
2018-Jun-09 10:29N 45°22' E 036°42'0 0.0
2018-Jun-09 09:54N 45°22' E 036°42'0 0.0
2018-Jun-09 09:29N 45°22' E 036°42'0 0.1
2018-Jun-09 08:58N 45°22' E 036°42'0 0.0
2018-Jun-09 08:30N 45°22' E 036°42'0 0.0
2018-Jun-09 07:57N 45°22' E 036°42'0 0.0
2018-Jun-09 07:28N 45°22' E 036°42'0 0.0
2018-Jun-09 06:59N 45°22' E 036°42'0 0.1
2018-Jun-09 06:28N 45°22' E 036°42'0 0.0
2018-Jun-09 05:59N 45°22' E 036°42'0 0.0
2018-Jun-09 05:28N 45°22' E 036°42'0 0.1
2018-Jun-09 04:58N 45°22' E 036°42'0 0.1
2018-Jun-09 04:29N 45°22' E 036°42'0 0.1
2018-Jun-09 03:58N 45°22' E 036°42'0 0.1
2018-Jun-09 03:30N 45°22' E 036°42'0 0.1
2018-Jun-09 02:53N 45°22' E 036°42'0 0.2
2018-Jun-09 02:30N 45°22' E 036°42'0 0.1
2018-Jun-09 01:57N 45°22' E 036°42'0 0.0
2018-Jun-08 23:54N 45°22' E 036°42'0 0.0
2018-Jun-08 23:30N 45°22' E 036°42'0 0.0
2018-Jun-08 22:59N 45°22' E 036°42'0 0.0
2018-Jun-08 22:26N 45°22' E 036°42'0 0.0
2018-Jun-08 21:56N 45°22' E 036°42'0 0.0
2018-Jun-08 21:27N 45°22' E 036°42'0 0.0
2018-Jun-08 20:54N 45°22' E 036°42'0 0.0
2018-Jun-08 18:17N 45°22' E 036°42'0 0.0
2018-Jun-08 17:59N 45°22' E 036°42'0 0.0
2018-Jun-08 17:23N 45°22' E 036°42'0 0.0
2018-Jun-08 16:58N 45°22' E 036°42'0 0.0
2018-Jun-08 16:30N 45°22' E 036°42'0 0.0
2018-Jun-08 16:00N 45°22' E 036°42'0 0.0
2018-Jun-08 15:28N 45°22' E 036°42'0 0.0
2018-Jun-08 14:53N 45°22' E 036°42'0 0.0
2018-Jun-08 14:29N 45°22' E 036°42'0 0.0
2018-Jun-08 13:56N 45°22' E 036°42'0 0.0
2018-Jun-08 13:28N 45°22' E 036°42'0 0.0
2018-Jun-08 13:00N 45°22' E 036°42'0 0.0
2018-Jun-08 12:30N 45°22' E 036°42'0 0.0
2018-Jun-08 11:56N 45°22' E 036°42'0 0.0
2018-Jun-08 11:28N 45°22' E 036°42'0 0.0
2018-Jun-08 10:58N 45°22' E 036°42'0 0.0
2018-Jun-08 10:26N 45°22' E 036°42'0 0.0
2018-Jun-08 09:56N 45°22' E 036°42'0 0.0
2018-Jun-08 09:30N 45°22' E 036°42'0 0.0
2018-Jun-08 08:59N 45°22' E 036°42'0 0.0
2018-Jun-08 08:28N 45°22' E 036°42'0 0.0
2018-Jun-08 07:57N 45°22' E 036°42'0 0.0
2018-Jun-08 07:28N 45°22' E 036°42'0 0.0
2018-Jun-08 06:59N 45°22' E 036°42'0 0.0
2018-Jun-08 06:29N 45°22' E 036°42'0 0.0
2018-Jun-08 05:55N 45°22' E 036°42'0 0.0
2018-Jun-08 05:28N 45°22' E 036°42'0 0.0
2018-Jun-08 04:58N 45°22' E 036°42'0 0.0
2018-Jun-08 04:29N 45°22' E 036°42'0 0.0
2018-Jun-08 03:57N 45°22' E 036°42'0 0.0
2018-Jun-08 03:29N 45°22' E 036°42'0 0.0
2018-Jun-08 02:59N 45°22' E 036°42'0 0.0
2018-Jun-08 02:28N 45°22' E 036°42'0 0.0
2018-Jun-08 01:56N 45°22' E 036°42'0 0.0
2018-Jun-08 01:30N 45°22' E 036°42'0 0.0
2018-Jun-08 00:58N 45°22' E 036°42'0 0.0
2018-Jun-08 00:30N 45°22' E 036°42'0 0.0
2018-Jun-07 23:56N 45°22' E 036°42'0 0.0
2018-Jun-07 23:26N 45°22' E 036°42'0 0.0
2018-Jun-07 22:59N 45°22' E 036°42'0 0.0
2018-Jun-07 22:29N 45°22' E 036°42'0 0.0
2018-Jun-07 21:55N 45°22' E 036°42'0 0.0
2018-Jun-07 21:29N 45°22' E 036°42'0 0.0
2018-Jun-07 20:59N 45°22' E 036°42'0 0.0
2018-Jun-07 20:28N 45°22' E 036°42'0 0.0
2018-Jun-07 19:55N 45°22' E 036°42'0 0.0
2018-Jun-07 19:28N 45°22' E 036°42'0 0.0
2018-Jun-07 19:00N 45°22' E 036°42'0 0.0
2018-Jun-07 18:30N 45°22' E 036°42'0 0.0
2018-Jun-07 17:55N 45°22' E 036°42'0 0.0
2018-Jun-07 17:25N 45°22' E 036°42'0 0.0
2018-Jun-07 16:53N 45°22' E 036°42'0 0.0
2018-Jun-07 16:30N 45°22' E 036°42'0 0.0
2018-Jun-07 15:58N 45°22' E 036°42'0 0.0
2018-Jun-07 15:15N 45°22' E 036°42'0 0.0
2018-Jun-07 14:58N 45°22' E 036°42'0 0.0
2018-Jun-07 14:28N 45°22' E 036°42'0 0.0
2018-Jun-07 14:00N 45°22' E 036°42'0 0.0
2018-Jun-07 13:30N 45°22' E 036°42'0 0.0
2018-Jun-07 12:59N 45°22' E 036°42'0 0.0
2018-Jun-07 12:30N 45°22' E 036°42'0 0.0
2018-Jun-07 11:59N 45°22' E 036°42'0 0.0
2018-Jun-07 11:30N 45°22' E 036°42'0 0.0
2018-Jun-07 10:53N 45°22' E 036°42'0 0.0
2018-Jun-07 10:29N 45°22' E 036°42'0 0.0
2018-Jun-07 09:55N 45°22' E 036°42'0 0.0
2018-Jun-07 09:27N 45°22' E 036°42'0 0.0
2018-Jun-07 08:59N 45°22' E 036°42'0 0.0
2018-Jun-07 08:29N 45°22' E 036°42'0 0.0
2018-Jun-07 08:00N 45°22' E 036°42'0 0.0
2018-Jun-07 07:29N 45°22' E 036°42'0 0.0
2018-Jun-07 06:59N 45°22' E 036°42'0 0.0
2018-Jun-07 06:30N 45°22' E 036°42'0 0.0
2018-Jun-07 05:58N 45°22' E 036°42'0 0.0
2018-Jun-07 05:28N 45°22' E 036°42'0 0.0
2018-Jun-07 04:59N 45°22' E 036°42'0 0.0
2018-Jun-07 00:31N 45°22' E 036°42'0 0.2
2018-Jun-07 00:22N 45°22' E 036°42'0 0.3
2018-Jun-06 23:56N 45°22' E 036°42'0 0.2
2018-Jun-06 23:28N 45°22' E 036°42'0 0.0
2018-Jun-06 22:59N 45°22' E 036°42'0 0.0
2018-Jun-06 22:28N 45°22' E 036°42'0 0.0
2018-Jun-06 21:58N 45°22' E 036°42'0 0.0
2018-Jun-06 21:22N 45°22' E 036°42'0 0.0
2018-Jun-06 21:00N 45°22' E 036°42'0 0.0
2018-Jun-06 20:25N 45°22' E 036°42'0 0.0
2018-Jun-06 19:59N 45°22' E 036°42'0 0.0
2018-Jun-06 19:27N 45°22' E 036°42'0 0.0
2018-Jun-06 18:57N 45°22' E 036°42'0 0.0
2018-Jun-06 14:53N 45°22' E 036°42'0 0.0
2018-Jun-06 14:18N 45°22' E 036°42'0 0.0
2018-Jun-06 13:57N 45°22' E 036°42'0 0.0
2018-Jun-06 13:28N 45°22' E 036°42'0 0.0
2018-Jun-06 13:00N 45°22' E 036°42'0 0.0
2018-Jun-06 12:30N 45°22' E 036°42'0 0.0
2018-Jun-06 11:54N 45°22' E 036°42'0 0.0
2018-Jun-06 11:29N 45°22' E 036°42'0 0.0
2018-Jun-06 10:58N 45°22' E 036°42'0 0.0
2018-Jun-06 10:29N 45°22' E 036°42'0 0.0
2018-Jun-06 09:55N 45°22' E 036°42'0 0.0
2018-Jun-06 09:20N 45°22' E 036°42'0 0.0
2018-Jun-06 08:53N 45°22' E 036°42'0 0.0
2018-Jun-06 08:28N 45°22' E 036°42'0 0.0
2018-Jun-06 07:55N 45°22' E 036°42'0 0.0
2018-Jun-06 07:28N 45°22' E 036°42'0 0.0
2018-Jun-06 07:00N 45°22' E 036°42'0 0.0
2018-Jun-06 06:30N 45°22' E 036°42'0 0.0
2018-Jun-06 06:00N 45°22' E 036°42'0 0.0
2018-Jun-06 05:25N 45°22' E 036°42'0 0.0
2018-Jun-06 04:59N 45°22' E 036°42'0 0.0
2018-Jun-06 04:29N 45°22' E 036°42'0 0.0
2018-Jun-06 04:00N 45°22' E 036°42'0 0.0
2018-Jun-06 03:29N 45°22' E 036°42'0 0.0
2018-Jun-06 02:59N 45°22' E 036°42'0 0.0
2018-Jun-06 02:29N 45°22' E 036°42'0 0.0
2018-Jun-06 02:00N 45°22' E 036°42'0 0.0
2018-Jun-06 01:30N 45°22' E 036°42'0 0.0
2018-Jun-06 01:00N 45°22' E 036°42'0 0.0
2018-Jun-06 00:31N 45°22' E 036°42'0 0.0
2018-Jun-06 00:01N 45°22' E 036°42'0 0.3
2018-Jun-05 23:30N 45°22' E 036°42'1 2.8
2018-Jun-05 23:01N 45°21' E 036°40'3 6.2
2018-Jun-05 22:31N 45°20' E 036°36'3 5.9
2018-Jun-05 22:01N 45°19' E 036°32'2 3.3
2018-Jun-05 21:31N 45°19' E 036°35'0 0.1
2018-Jun-05 21:00N 45°19' E 036°35'0 0.0
2018-Jun-05 20:31N 45°19' E 036°35'0 0.0
2018-Jun-05 20:00N 45°19' E 036°35'0 0.0
2018-Jun-05 19:30N 45°19' E 036°35'0 0.0
2018-Jun-05 19:01N 45°19' E 036°35'0 0.0
2018-Jun-05 18:31N 45°19' E 036°35'3 5.4
2018-Jun-05 18:01N 45°20' E 036°38'3 5.4
2018-Jun-05 17:30N 45°23' E 036°40'3 6.8
2018-Jun-05 17:01N 45°26' E 036°42'3 5.7
2018-Jun-05 16:30N 45°28' E 036°44'1 0.3
2018-Jun-05 14:12N 45°28' E 036°45'0 0.2
2018-Jun-05 14:00N 45°28' E 036°45'  

Dump ship's entire track history